createdAt,value
2023-05-21T00:02:00.907Z,7.50
2023-05-21T00:04:31.721Z,7.90
2023-05-21T00:06:59.790Z,6.93
2023-05-21T00:09:29.551Z,7.47
2023-05-21T00:11:57.862Z,6.83
2023-05-21T00:14:26.012Z,9.20
2023-05-21T00:16:54.060Z,7.50
2023-05-21T00:19:22.439Z,8.03
2023-05-21T00:21:53.907Z,8.07
2023-05-21T00:24:22.156Z,7.10
2023-05-21T00:26:51.509Z,6.53
2023-05-21T00:29:20.284Z,8.93
2023-05-21T00:31:48.774Z,7.17
2023-05-21T00:34:18.223Z,7.07
2023-05-21T00:36:47.103Z,8.10
2023-05-21T00:39:15.650Z,8.03
2023-05-21T00:41:46.722Z,9.10
2023-05-21T00:44:17.261Z,7.63
2023-05-21T00:46:48.947Z,7.23
2023-05-21T00:49:17.900Z,7.80
2023-05-21T00:51:49.826Z,7.57
2023-05-21T00:54:20.708Z,7.73
2023-05-21T00:56:49.979Z,9.17
2023-05-21T00:59:20.145Z,7.87
2023-05-21T01:01:54.109Z,10.30
2023-05-21T01:04:22.410Z,7.50
2023-05-21T01:06:56.659Z,7.83
2023-05-21T01:09:25.351Z,7.43
2023-05-21T01:11:57.886Z,6.93
2023-05-21T01:14:28.238Z,7.67
2023-05-21T01:16:56.930Z,7.73
2023-05-21T01:19:26.124Z,9.27
2023-05-21T01:22:01.598Z,6.90
2023-05-21T01:24:31.510Z,7.73
2023-05-21T01:27:00.376Z,6.97
2023-05-21T01:29:28.935Z,7.00
2023-05-21T01:32:04.206Z,8.03
2023-05-21T01:34:36.653Z,7.93
2023-05-21T01:37:15.728Z,6.70
2023-05-21T01:39:49.205Z,6.93
2023-05-21T01:42:20.033Z,6.90
2023-05-21T01:44:48.829Z,9.47
2023-05-21T01:47:19.148Z,8.77
2023-05-21T01:49:47.846Z,6.07
2023-05-21T01:52:16.086Z,7.87
2023-05-21T01:54:45.537Z,6.67
2023-05-21T01:57:13.808Z,7.50
2023-05-21T01:59:42.443Z,7.07
2023-05-21T02:02:10.549Z,8.27
2023-05-21T02:04:41.555Z,7.10
2023-05-21T02:07:10.387Z,10.23
2023-05-21T02:09:38.360Z,7.07
2023-05-21T02:12:09.978Z,7.97
2023-05-21T02:14:38.514Z,7.70
2023-05-21T02:17:08.193Z,7.40
2023-05-21T02:19:36.898Z,8.67
2023-05-21T02:22:05.146Z,6.57
2023-05-21T02:24:33.327Z,6.63
2023-05-21T02:27:01.388Z,6.57
2023-05-21T02:29:30.985Z,7.37
2023-05-21T02:31:59.079Z,6.00
2023-05-21T02:34:30.533Z,8.07
2023-05-21T02:36:58.931Z,8.53
2023-05-21T02:39:27.391Z,8.03
2023-05-21T02:41:55.363Z,5.93
2023-05-21T02:44:24.361Z,5.90
2023-05-21T02:46:53.900Z,7.53
2023-05-21T02:49:22.022Z,7.87
2023-05-21T02:51:50.054Z,9.47
2023-05-21T02:54:18.061Z,6.13
2023-05-21T02:56:46.276Z,6.10
2023-05-21T02:59:14.397Z,9.20
2023-05-21T03:01:45.543Z,5.63
2023-05-21T03:04:15.312Z,6.43
2023-05-21T03:06:43.318Z,6.60
2023-05-21T03:09:11.389Z,7.07
2023-05-21T03:11:39.470Z,6.00
2023-05-21T03:14:09.969Z,6.73
2023-05-21T03:16:38.219Z,6.00
2023-05-21T03:19:06.667Z,5.57
2023-05-21T03:21:36.828Z,5.63
2023-05-21T03:24:05.998Z,5.87
2023-05-21T03:26:34.041Z,6.23
2023-05-21T03:29:02.420Z,5.30
2023-05-21T03:31:30.386Z,7.13
2023-05-21T03:33:58.320Z,6.70
2023-05-21T03:36:26.315Z,5.73
2023-05-21T03:38:55.757Z,5.73
2023-05-21T03:41:23.816Z,7.93
2023-05-21T03:43:51.735Z,6.67
2023-05-21T03:46:19.721Z,5.93
2023-05-21T03:48:47.625Z,7.37
2023-05-21T03:51:16.064Z,6.03
2023-05-21T03:53:44.012Z,6.90
2023-05-21T03:56:13.513Z,9.07
2023-05-21T03:58:41.546Z,7.03
2023-05-21T04:01:10.823Z,5.80
2023-05-21T04:03:40.754Z,7.63
2023-05-21T04:06:10.368Z,7.20
2023-05-21T04:08:38.603Z,8.30
2023-05-21T04:11:06.632Z,7.07
2023-05-21T04:13:36.287Z,7.80
2023-05-21T04:16:04.286Z,6.57
2023-05-21T04:18:34.332Z,6.10
2023-05-21T04:21:02.493Z,6.27
2023-05-21T04:23:30.319Z,7.27
2023-05-21T04:25:58.276Z,7.07
2023-05-21T04:28:28.973Z,8.17
2023-05-21T04:30:58.784Z,7.67
2023-05-21T04:33:27.160Z,7.00
2023-05-21T04:35:55.234Z,5.60
2023-05-21T04:38:23.276Z,6.33
2023-05-21T04:40:52.090Z,6.33
2023-05-21T04:43:25.653Z,7.63
2023-05-21T04:45:54.862Z,8.40
2023-05-21T04:48:25.726Z,7.50
2023-05-21T04:50:54.237Z,7.83
2023-05-21T04:53:22.297Z,7.30
2023-05-21T04:55:50.314Z,6.73
2023-05-21T04:58:19.396Z,6.47
2023-05-21T05:00:47.569Z,11.63
2023-05-21T05:03:15.808Z,6.77
2023-05-21T05:05:45.295Z,7.03
2023-05-21T05:08:15.519Z,7.10
2023-05-21T05:10:43.977Z,8.87
2023-05-21T05:13:15.113Z,8.13
2023-05-21T05:15:43.035Z,8.83
2023-05-21T05:18:11.679Z,8.60
2023-05-21T05:20:39.683Z,9.63
2023-05-21T05:23:09.003Z,8.33
2023-05-21T05:25:37.358Z,8.60
2023-05-21T05:28:05.950Z,8.53
2023-05-21T05:30:34.173Z,9.47
2023-05-21T05:33:02.230Z,12.00
2023-05-21T05:35:30.328Z,8.33
2023-05-21T05:37:58.244Z,9.27
2023-05-21T05:40:27.845Z,11.07
2023-05-21T05:42:55.786Z,11.03
2023-05-21T05:45:23.771Z,9.60
2023-05-21T05:47:51.838Z,9.03
2023-05-21T05:50:19.990Z,9.83
2023-05-21T05:52:48.228Z,9.83
2023-05-21T05:55:16.339Z,9.53
2023-05-21T05:57:45.855Z,11.90
2023-05-21T06:00:16.009Z,9.80
2023-05-21T06:02:44.095Z,11.93
2023-05-21T06:05:12.388Z,10.50
2023-05-21T06:07:42.096Z,10.97
2023-05-21T06:10:10.889Z,9.87
2023-05-21T06:12:40.074Z,11.77
2023-05-21T06:15:10.809Z,12.23
2023-05-21T06:17:39.176Z,13.37
2023-05-21T06:20:09.700Z,12.30
2023-05-21T06:22:38.125Z,11.67
2023-05-21T06:25:07.207Z,12.27
2023-05-21T06:27:35.297Z,13.30
2023-05-21T06:30:03.456Z,12.70
2023-05-21T06:32:32.995Z,14.67
2023-05-21T06:35:01.274Z,11.97
2023-05-21T06:37:29.747Z,12.87
2023-05-21T06:39:58.091Z,14.73
2023-05-21T06:42:26.268Z,16.30
2023-05-21T06:44:54.374Z,18.50
2023-05-21T06:47:22.706Z,16.27
2023-05-21T06:49:52.320Z,14.93
2023-05-21T06:52:20.389Z,14.13
2023-05-21T06:54:48.402Z,17.63
2023-05-21T06:57:17.362Z,14.90
2023-05-21T06:59:45.516Z,16.20
2023-05-21T07:02:13.482Z,16.77
2023-05-21T07:04:41.571Z,15.83
2023-05-21T07:07:11.033Z,14.73
2023-05-21T07:09:39.216Z,14.93
2023-05-21T07:12:08.681Z,16.80
2023-05-21T07:14:36.755Z,15.77
2023-05-21T07:17:04.929Z,16.00
2023-05-21T07:19:33.088Z,19.70
2023-05-21T07:22:01.162Z,15.70
2023-05-21T07:24:30.786Z,16.33
2023-05-21T07:26:58.705Z,17.53
2023-05-21T07:29:28.948Z,19.17
2023-05-21T07:31:56.921Z,18.90
2023-05-21T07:34:25.097Z,18.77
2023-05-21T07:36:53.200Z,18.87
2023-05-21T07:39:23.945Z,16.70
2023-05-21T07:41:53.611Z,17.23
2023-05-21T07:44:21.588Z,18.87
2023-05-21T07:46:49.802Z,18.73
2023-05-21T07:49:17.946Z,19.10
2023-05-21T07:51:53.410Z,17.47
2023-05-21T07:54:21.584Z,17.27
2023-05-21T07:56:49.875Z,21.93
2023-05-21T07:59:19.670Z,20.23
2023-05-21T08:02:00.015Z,21.13
2023-05-21T08:04:33.117Z,20.50
2023-05-21T08:07:01.078Z,19.53
2023-05-21T08:09:29.448Z,19.93
2023-05-21T08:11:57.445Z,18.30
2023-05-21T08:14:26.930Z,18.80
2023-05-21T08:16:54.993Z,20.13
2023-05-21T08:19:23.074Z,20.87
2023-05-21T08:21:52.852Z,19.40
2023-05-21T08:24:21.150Z,19.20
2023-05-21T08:26:50.885Z,18.20
2023-05-21T08:29:19.966Z,19.30
2023-05-21T08:31:49.554Z,20.23
2023-05-21T08:34:18.929Z,22.97
2023-05-21T08:36:48.058Z,20.83
2023-05-21T08:39:16.041Z,19.13
2023-05-21T08:41:49.684Z,20.67
2023-05-21T08:44:22.283Z,19.17
2023-05-21T08:46:52.367Z,19.33
2023-05-21T08:49:28.996Z,19.83
2023-05-21T08:51:57.316Z,20.03
2023-05-21T08:54:25.327Z,21.13
2023-05-21T08:56:54.565Z,20.67
2023-05-21T08:59:23.066Z,21.97
2023-05-21T09:01:53.984Z,19.50
2023-05-21T09:04:22.419Z,19.77
2023-05-21T09:06:51.012Z,19.40
2023-05-21T09:09:26.938Z,18.77
2023-05-21T09:11:55.305Z,19.43
2023-05-21T09:14:24.944Z,20.57
2023-05-21T09:16:54.495Z,19.77
2023-05-21T09:19:22.644Z,19.30
2023-05-21T09:21:52.865Z,18.93
2023-05-21T09:24:23.691Z,19.67
2023-05-21T09:26:52.488Z,23.07
2023-05-21T09:29:20.469Z,20.20
2023-05-21T09:31:48.405Z,19.90
2023-05-21T09:34:17.786Z,19.13
2023-05-21T09:36:46.041Z,18.20
2023-05-21T09:39:18.118Z,18.67
2023-05-21T09:41:46.110Z,18.37
2023-05-21T09:44:14.012Z,18.40
2023-05-21T09:46:42.885Z,19.83
2023-05-21T09:49:24.706Z,18.87
2023-05-21T09:51:56.404Z,20.33
2023-05-21T09:54:24.570Z,18.47
2023-05-21T09:56:53.646Z,17.90
2023-05-21T09:59:22.633Z,19.50
2023-05-21T10:01:53.178Z,17.90
2023-05-21T10:04:42.632Z,17.60
2023-05-21T10:07:10.843Z,17.37
2023-05-21T10:09:39.357Z,19.47
2023-05-21T10:12:08.403Z,16.17
2023-05-21T10:14:37.011Z,18.07
2023-05-21T10:17:07.428Z,17.60
2023-05-21T10:19:38.730Z,18.23
2023-05-21T10:22:07.657Z,17.50
2023-05-21T10:24:36.538Z,20.93
2023-05-21T10:27:04.969Z,19.40
2023-05-21T10:29:33.486Z,20.07
2023-05-21T10:32:03.036Z,17.27
2023-05-21T10:34:32.198Z,17.75
2023-05-21T10:37:03.721Z,19.55
2023-05-21T10:39:32.511Z,19.25
2023-05-21T10:42:13.028Z,17.40
2023-05-21T10:44:51.001Z,17.77
2023-05-21T10:47:42.121Z,17.02
2023-05-21T10:50:27.769Z,20.23
2023-05-21T10:53:10.675Z,18.60
2023-05-21T10:55:49.745Z,16.98
2023-05-21T10:58:40.939Z,18.50
2023-05-21T11:01:09.501Z,18.33
2023-05-21T11:03:38.268Z,19.33
2023-05-21T11:06:06.907Z,16.30
2023-05-21T11:08:37.647Z,18.17
2023-05-21T11:11:06.467Z,17.70
2023-05-21T11:13:49.898Z,17.83
2023-05-21T11:16:18.563Z,15.90
2023-05-21T11:19:03.109Z,15.38
2023-05-21T11:21:32.463Z,16.38
2023-05-21T11:24:08.416Z,15.95
2023-05-21T11:27:08.576Z,15.15
2023-05-21T11:29:41.758Z,15.05
2023-05-21T11:32:10.971Z,15.80
2023-05-21T11:34:40.669Z,15.45
2023-05-21T11:37:30.254Z,16.15
2023-05-21T11:40:21.606Z,15.35
2023-05-21T11:42:53.675Z,16.92
2023-05-21T11:45:23.310Z,14.98
2023-05-21T11:47:52.773Z,16.70
2023-05-21T11:50:21.241Z,17.17
2023-05-21T11:52:50.633Z,15.70
2023-05-21T11:55:26.087Z,13.70
2023-05-21T11:57:55.564Z,14.45
2023-05-21T12:00:23.658Z,15.38
2023-05-21T12:02:53.667Z,15.07
2023-05-21T12:05:24.278Z,15.73
2023-05-21T12:07:52.261Z,14.70
2023-05-21T12:10:24.490Z,14.63
2023-05-21T12:12:56.502Z,14.80
2023-05-21T12:15:26.372Z,16.95
2023-05-21T12:17:56.014Z,15.40
2023-05-21T12:20:24.556Z,17.58
2023-05-21T12:22:52.815Z,15.10
2023-05-21T12:25:21.294Z,22.05
2023-05-21T12:27:58.098Z,14.25
2023-05-21T12:30:26.998Z,15.68
2023-05-21T12:32:55.050Z,15.50
2023-05-21T12:35:24.637Z,14.43
2023-05-21T12:37:55.063Z,13.57
2023-05-21T12:40:22.947Z,14.95
2023-05-21T12:42:53.193Z,15.57
2023-05-21T12:45:22.888Z,15.45
2023-05-21T12:47:56.038Z,13.48
2023-05-21T12:50:25.273Z,14.32
2023-05-21T12:52:59.789Z,14.25
2023-05-21T12:55:37.251Z,14.38
2023-05-21T12:58:09.453Z,14.88
2023-05-21T13:00:38.468Z,13.50
2023-05-21T13:03:07.599Z,16.42
2023-05-21T13:05:36.293Z,18.25
2023-05-21T13:08:05.643Z,13.85
2023-05-21T13:10:33.817Z,14.65
2023-05-21T13:13:02.436Z,13.65
2023-05-21T13:15:32.103Z,13.40
2023-05-21T13:18:01.789Z,15.13
2023-05-21T13:20:30.216Z,14.63
2023-05-21T13:22:58.606Z,13.98
2023-05-21T13:25:29.325Z,14.90
2023-05-21T13:27:58.411Z,13.90
2023-05-21T13:30:28.836Z,13.93
2023-05-21T13:32:58.662Z,14.13
2023-05-21T13:35:30.463Z,14.15
2023-05-21T13:37:58.607Z,14.10
2023-05-21T13:40:27.064Z,15.07
2023-05-21T13:42:57.280Z,14.07
2023-05-21T13:45:29.582Z,15.40
2023-05-21T13:48:00.316Z,15.38
2023-05-21T13:50:28.753Z,14.90
2023-05-21T13:52:56.927Z,15.55
2023-05-21T13:55:25.304Z,15.60
2023-05-21T13:57:53.643Z,14.95
2023-05-21T14:00:22.173Z,14.75
2023-05-21T14:02:51.474Z,14.45
2023-05-21T14:05:21.053Z,15.27
2023-05-21T14:07:49.776Z,16.25
2023-05-21T14:10:18.449Z,15.48
2023-05-21T14:12:47.378Z,14.15
2023-05-21T14:15:16.206Z,14.32
2023-05-21T14:17:44.170Z,15.27
2023-05-21T14:20:12.974Z,15.93
2023-05-21T14:22:42.553Z,14.18
2023-05-21T14:25:11.059Z,15.38
2023-05-21T14:27:40.092Z,14.63
2023-05-21T14:30:10.301Z,15.05
2023-05-21T14:32:38.463Z,14.45
2023-05-21T14:35:07.062Z,14.38
2023-05-21T14:37:35.054Z,15.10
2023-05-21T14:40:05.613Z,15.00
2023-05-21T14:42:33.779Z,15.05
2023-05-21T14:45:16.808Z,15.70
2023-05-21T14:47:46.141Z,15.13
2023-05-21T14:50:14.934Z,16.60
2023-05-21T14:52:43.655Z,14.50
2023-05-21T14:55:13.940Z,15.82
2023-05-21T14:57:41.993Z,15.20
2023-05-21T15:00:11.672Z,16.50
2023-05-21T15:02:40.492Z,15.90
2023-05-21T15:05:09.331Z,14.75
2023-05-21T15:07:37.377Z,15.55
2023-05-21T15:10:06.178Z,16.35
2023-05-21T15:12:35.667Z,14.85
2023-05-21T15:15:03.825Z,14.38
2023-05-21T15:17:33.189Z,14.98
2023-05-21T15:20:04.445Z,15.50
2023-05-21T15:22:32.732Z,15.70
2023-05-21T15:25:01.995Z,15.32
2023-05-21T15:27:29.941Z,15.10
2023-05-21T15:29:59.585Z,15.07
2023-05-21T15:32:27.839Z,15.07
2023-05-21T15:34:55.899Z,14.75
2023-05-21T15:37:23.954Z,14.20
2023-05-21T15:39:53.469Z,13.55
2023-05-21T15:42:21.349Z,13.48
2023-05-21T15:44:49.432Z,14.18
2023-05-21T15:47:18.649Z,15.10
2023-05-21T15:49:46.641Z,15.80
2023-05-21T15:52:14.490Z,14.50
2023-05-21T15:54:42.404Z,13.85
2023-05-21T15:57:10.397Z,13.70
2023-05-21T15:59:38.343Z,14.23
2023-05-21T16:02:06.893Z,13.43
2023-05-21T16:04:36.252Z,16.13
2023-05-21T16:07:04.201Z,13.27
2023-05-21T16:09:32.172Z,12.50
2023-05-21T16:12:00.107Z,13.68
2023-05-21T16:14:29.428Z,14.90
2023-05-21T16:16:57.458Z,14.52
2023-05-21T16:19:25.674Z,14.95
2023-05-21T16:21:55.161Z,14.77
2023-05-21T16:24:24.024Z,14.32
2023-05-21T16:26:52.121Z,15.23
2023-05-21T16:29:21.987Z,15.07
2023-05-21T16:31:50.278Z,15.73
2023-05-21T16:34:18.338Z,15.45
2023-05-21T16:36:46.414Z,15.85
2023-05-21T16:39:16.004Z,15.80
2023-05-21T16:41:44.889Z,14.50
2023-05-21T16:44:12.802Z,16.30
2023-05-21T16:46:40.890Z,15.55
2023-05-21T16:49:08.925Z,16.95
2023-05-21T16:51:36.836Z,16.30
2023-05-21T16:54:06.102Z,15.93
2023-05-21T16:56:35.773Z,14.40
2023-05-21T16:59:03.831Z,16.33
2023-05-21T17:01:31.910Z,16.70
2023-05-21T17:04:00.126Z,15.73
2023-05-21T17:06:28.391Z,14.55
2023-05-21T17:08:56.621Z,15.77
2023-05-21T17:11:24.466Z,15.10
2023-05-21T17:13:54.041Z,14.07
2023-05-21T17:16:22.226Z,16.35
2023-05-21T17:18:51.462Z,14.10
2023-05-21T17:21:19.821Z,13.88
2023-05-21T17:23:47.880Z,13.75
2023-05-21T17:26:17.016Z,13.75
2023-05-21T17:28:45.037Z,13.80
2023-05-21T17:31:15.369Z,15.20
2023-05-21T17:33:43.507Z,14.88
2023-05-21T17:36:11.659Z,14.02
2023-05-21T17:38:39.578Z,13.50
2023-05-21T17:41:07.574Z,13.48
2023-05-21T17:43:35.453Z,13.60
2023-05-21T17:46:03.373Z,14.77
2023-05-21T17:48:32.649Z,14.05
2023-05-21T17:51:00.750Z,15.30
2023-05-21T17:53:28.986Z,13.40
2023-05-21T17:55:57.071Z,16.33
2023-05-21T17:58:25.095Z,12.60
2023-05-21T18:00:54.165Z,13.95
2023-05-21T18:03:22.219Z,12.50
2023-05-21T18:05:52.104Z,13.68
2023-05-21T18:08:20.138Z,13.30
2023-05-21T18:10:48.222Z,12.85
2023-05-21T18:13:16.436Z,14.32
2023-05-21T18:15:45.113Z,14.23
2023-05-21T18:18:19.822Z,15.00
2023-05-21T18:20:48.889Z,13.63
2023-05-21T18:23:18.518Z,12.45
2023-05-21T18:25:46.445Z,16.33
2023-05-21T18:28:17.175Z,12.73
2023-05-21T18:31:24.508Z,13.43
2023-05-21T18:33:56.279Z,13.73
2023-05-21T18:36:26.887Z,13.23
2023-05-21T18:38:58.054Z,14.38
2023-05-21T18:41:26.530Z,13.63
2023-05-21T18:43:55.830Z,14.13
2023-05-21T18:46:35.700Z,14.18
2023-05-21T18:49:07.010Z,13.82
2023-05-21T18:51:38.989Z,15.50
2023-05-21T18:54:13.451Z,31.67
2023-05-21T18:56:45.626Z,28.70
2023-05-21T18:59:14.400Z,27.15
2023-05-21T19:01:45.857Z,18.38
2023-05-21T19:04:15.229Z,15.77
2023-05-21T19:06:44.612Z,15.23
2023-05-21T19:09:14.711Z,15.95
2023-05-21T19:11:43.397Z,15.05
2023-05-21T19:14:14.316Z,15.18
2023-05-21T19:16:42.714Z,14.93
2023-05-21T19:19:10.872Z,15.52
2023-05-21T19:21:39.153Z,15.02
2023-05-21T19:24:08.367Z,14.38
2023-05-21T19:26:37.781Z,15.05
2023-05-21T19:29:05.857Z,13.52
2023-05-21T19:31:35.044Z,13.65
2023-05-21T19:34:04.584Z,13.18
2023-05-21T19:36:48.461Z,13.18
2023-05-21T19:39:20.014Z,12.50
2023-05-21T19:41:49.633Z,14.80
2023-05-21T19:44:17.637Z,13.15
2023-05-21T19:46:45.691Z,13.48
2023-05-21T19:49:14.572Z,13.40
2023-05-21T19:51:42.640Z,13.70
2023-05-21T19:54:10.742Z,13.90
2023-05-21T19:56:39.106Z,13.10
2023-05-21T19:59:08.740Z,13.35
2023-05-21T20:01:39.355Z,12.63
2023-05-21T20:04:08.091Z,11.38
2023-05-21T20:06:36.178Z,11.13
2023-05-21T20:09:04.449Z,11.75
2023-05-21T20:11:32.649Z,10.98
2023-05-21T20:14:03.026Z,11.85
2023-05-21T20:16:33.448Z,11.38
2023-05-21T20:19:02.017Z,11.75
2023-05-21T20:21:31.726Z,10.57
2023-05-21T20:23:59.970Z,11.38
2023-05-21T20:26:27.951Z,11.65
2023-05-21T20:28:56.040Z,11.32
2023-05-21T20:31:26.048Z,11.10
2023-05-21T20:33:55.568Z,10.80
2023-05-21T20:36:23.820Z,11.10
2023-05-21T20:38:51.893Z,10.30
2023-05-21T20:41:21.768Z,10.52
2023-05-21T20:43:50.029Z,9.43
2023-05-21T20:46:18.526Z,11.73
2023-05-21T20:48:48.091Z,12.82
2023-05-21T20:51:17.541Z,9.85
2023-05-21T20:53:45.451Z,10.05
2023-05-21T20:56:14.847Z,10.65
2023-05-21T20:58:42.753Z,12.15
2023-05-21T21:01:10.938Z,9.50
2023-05-21T21:03:41.498Z,9.60
2023-05-21T21:06:09.908Z,10.00
2023-05-21T21:08:40.370Z,9.27
2023-05-21T21:11:09.697Z,9.95
2023-05-21T21:13:37.711Z,9.93
2023-05-21T21:16:06.639Z,9.97
2023-05-21T21:18:34.825Z,9.80
2023-05-21T21:21:02.893Z,9.85
2023-05-21T21:23:30.873Z,9.80
2023-05-21T21:26:01.100Z,8.90
2023-05-21T21:28:29.128Z,9.70
2023-05-21T21:30:57.161Z,10.93
2023-05-21T21:33:26.876Z,11.63
2023-05-21T21:35:54.976Z,9.30
2023-05-21T21:38:25.540Z,13.63
2023-05-21T21:40:54.508Z,9.80
2023-05-21T21:43:23.822Z,15.00
2023-05-21T21:45:51.759Z,11.43
2023-05-21T21:48:22.400Z,11.13
2023-05-21T21:50:50.310Z,9.63
2023-05-21T21:53:18.291Z,10.60
2023-05-21T21:55:46.173Z,11.20
2023-05-21T21:58:14.142Z,9.10
2023-05-21T22:00:44.054Z,10.17
2023-05-21T22:03:14.575Z,9.33
2023-05-21T22:05:42.881Z,14.73
2023-05-21T22:08:10.855Z,9.67
2023-05-21T22:10:39.345Z,9.83
2023-05-21T22:13:07.595Z,10.40
2023-05-21T22:15:36.051Z,9.90
2023-05-21T22:18:05.793Z,9.63
2023-05-21T22:20:35.174Z,9.70
2023-05-21T22:23:03.306Z,10.43
2023-05-21T22:25:31.456Z,11.30
2023-05-21T22:27:59.382Z,9.10
2023-05-21T22:30:27.313Z,10.40
2023-05-21T22:32:55.212Z,9.47
2023-05-21T22:35:24.621Z,8.97
2023-05-21T22:37:52.514Z,9.97
2023-05-21T22:40:20.424Z,9.67
2023-05-21T22:42:48.567Z,9.17
2023-05-21T22:45:17.073Z,11.43
2023-05-21T22:47:45.037Z,9.47
2023-05-21T22:50:13.038Z,10.00
2023-05-21T22:52:43.325Z,11.30
2023-05-21T22:55:11.794Z,8.90
2023-05-21T22:57:40.848Z,10.17
2023-05-21T23:00:10.851Z,10.53
2023-05-21T23:02:38.798Z,9.53
2023-05-21T23:05:07.226Z,9.07
2023-05-21T23:07:35.178Z,10.00
2023-05-21T23:10:04.818Z,9.50
2023-05-21T23:12:32.665Z,8.47
2023-05-21T23:15:00.492Z,8.77
2023-05-21T23:17:28.590Z,9.30
2023-05-21T23:19:56.606Z,10.70
2023-05-21T23:22:24.519Z,9.90
2023-05-21T23:24:54.222Z,11.03
2023-05-21T23:27:24.033Z,10.13
2023-05-21T23:29:52.023Z,9.13
2023-05-21T23:32:19.960Z,9.50
2023-05-21T23:34:48.365Z,9.40
2023-05-21T23:37:16.410Z,9.60
2023-05-21T23:39:48.134Z,10.37
2023-05-21T23:42:16.489Z,9.90
2023-05-21T23:44:45.890Z,8.47
2023-05-21T23:47:13.736Z,9.10
2023-05-21T23:49:41.807Z,9.20
2023-05-21T23:52:13.076Z,8.83
2023-05-21T23:54:41.664Z,9.73
2023-05-21T23:57:09.553Z,10.87
2023-05-21T23:59:37.539Z,11.00
